This is the latest recevied weather packets stored in our database for station/object VK2BOS. If no packets are shown the sender has not sent any weather packets the latest 10 day(s).
| Time | Temp. | Humidity | Pressure | Rain* | Wind** | Luminosity | Snow |
|---|---|---|---|---|---|---|---|
| 1777495334 | 15.56° C | 92% | 1027.9 hPa | 0 mm | - | 0 W/m² | - |
| 1777494735 | 15.56° C | 92% | 1027.8 hPa | 0 mm | - | 0 W/m² | - |
| 1777494004 | 15.56° C | 92% | 1027.6 hPa | 0 mm | - | 0 W/m² | - |
| 1777492204 | 15.56° C | 92% | 1027.5 hPa | 0 mm | - | 0 W/m² | - |
| 1777489804 | 15.56° C | 92% | 1027.4 hPa | 0 mm | - | 0 W/m² | - |
| 1777488604 | 15.56° C | 92% | 1027.4 hPa | 0 mm | - | 0 W/m² | - |
| 1777487404 | 15.56° C | 92% | 1027.4 hPa | 0 mm | - | 0 W/m² | - |
| 1777478404 | 15.56° C | 92% | 1027.5 hPa | 0 mm | - | 0 W/m² | - |
| 1777476604 | 15.56° C | 92% | 1027.6 hPa | 0 mm | - | 0 W/m² | - |
| 1777471804 | 15.56° C | 92% | 1027.6 hPa | 0 mm | - | 0 W/m² | - |
| 1777471204 | 15.56° C | 92% | 1027.5 hPa | 0 mm | - | 0 W/m² | - |
| 1777470004 | 15.56° C | 92% | 1027.5 hPa | 0 mm | - | 0 W/m² | - |
| 1777469403 | 15.56° C | 92% | 1027.6 hPa | 0 mm | - | 0 W/m² | - |
| 1777466403 | 16.11° C | 92% | 1028 hPa | 0 mm | - | 0 W/m² | - |
| 1777457404 | 16.67° C | 86% | 1027.4 hPa | 0 mm | - | 0 W/m² | - |
| 1777455604 | 17.78° C | 83% | 1027 hPa | 0 mm | - | 0 W/m² | - |
| 1777452003 | 18.89° C | 78% | 1026.5 hPa | 0 mm | - | 0 W/m² | - |
| 1777446603 | 21.67° C | 66% | 1025.3 hPa | 0 mm | - | 5 W/m² | - |
| 1777443604 | 22.78° C | 62% | 1024.8 hPa | 0 mm | - | 65 W/m² | - |
| 1777438804 | 23.89° C | 60% | 1024.8 hPa | 0 mm | - | 54 W/m² | - |
| 1777438333 | 24.44° C | 59% | 1024.7 hPa | 0 mm | - | 56 W/m² | - |
| 1777435804 | 23.89° C | 64% | 1024.7 hPa | 0 mm | - | 70 W/m² | - |
| 1777434004 | 24.44° C | 63% | 1024.7 hPa | 0 mm | - | 84 W/m² | - |
| 1777433404 | 24.44° C | 64% | 1024.8 hPa | 0 mm | - | 160 W/m² | - |
| 1777432803 | 24.44° C | 64% | 1024.8 hPa | 0 mm | - | 97 W/m² | - |
* Rain latest hour (hover to see other rain measurements)
** Current wind speed in m/s (hover to see current wind gust speed)